sensor_id;sensor_type;location;lat;lon;timestamp;pressure;altitude;pressure_sealevel;temperature;humidity
80198;BME280;69517;52.030;7.106;2023-11-22T00:01:47;101761.09;;;21.80;72.16
80198;BME280;69517;52.030;7.106;2023-11-22T00:04:12;101767.38;;;21.78;72.62
80198;BME280;69517;52.030;7.106;2023-11-22T00:06:39;101773.66;;;21.75;72.71
80198;BME280;69517;52.030;7.106;2023-11-22T00:09:05;101764.13;;;21.73;72.68
80198;BME280;69517;52.030;7.106;2023-11-22T00:11:32;101766.84;;;21.71;72.81
80198;BME280;69517;52.030;7.106;2023-11-22T00:13:59;101757.09;;;21.73;72.57
80198;BME280;69517;52.030;7.106;2023-11-22T00:16:26;101766.25;;;21.66;72.93
80198;BME280;69517;52.030;7.106;2023-11-22T00:18:52;101760.06;;;21.67;72.73
80198;BME280;69517;52.030;7.106;2023-11-22T00:21:19;101763.72;;;21.65;72.90
80198;BME280;69517;52.030;7.106;2023-11-22T00:23:45;101759.97;;;21.69;72.48
80198;BME280;69517;52.030;7.106;2023-11-22T00:26:12;101768.03;;;21.66;72.74
80198;BME280;69517;52.030;7.106;2023-11-22T00:28:38;101761.09;;;21.65;72.64
80198;BME280;69517;52.030;7.106;2023-11-22T00:31:06;101759.38;;;21.64;72.71
80198;BME280;69517;52.030;7.106;2023-11-22T00:33:32;101761.09;;;21.65;72.58
80198;BME280;69517;52.030;7.106;2023-11-22T00:35:59;101773.41;;;21.64;72.59
80198;BME280;69517;52.030;7.106;2023-11-22T00:38:29;101773.47;;;21.63;72.72
80198;BME280;69517;52.030;7.106;2023-11-22T00:40:56;101784.16;;;21.60;72.71
80198;BME280;69517;52.030;7.106;2023-11-22T00:43:22;101778.03;;;21.59;72.82
80198;BME280;69517;52.030;7.106;2023-11-22T00:45:50;101779.75;;;21.60;72.55
80198;BME280;69517;52.030;7.106;2023-11-22T00:48:18;101781.53;;;21.60;72.44
80198;BME280;69517;52.030;7.106;2023-11-22T00:50:44;101787.03;;;21.55;72.57
80198;BME280;69517;52.030;7.106;2023-11-22T00:53:10;101792.16;;;21.58;72.78
80198;BME280;69517;52.030;7.106;2023-11-22T00:55:37;101808.00;;;21.57;72.67
80198;BME280;69517;52.030;7.106;2023-11-22T00:58:03;101802.91;;;21.54;72.55
80198;BME280;69517;52.030;7.106;2023-11-22T01:00:29;101816.84;;;21.56;72.49
80198;BME280;69517;52.030;7.106;2023-11-22T01:02:56;101817.94;;;21.52;72.71
80198;BME280;69517;52.030;7.106;2023-11-22T01:05:23;101823.09;;;21.53;72.87
80198;BME280;69517;52.030;7.106;2023-11-22T01:07:50;101818.78;;;21.52;72.67
80198;BME280;69517;52.030;7.106;2023-11-22T01:10:16;101822.41;;;21.50;72.74
80198;BME280;69517;52.030;7.106;2023-11-22T01:12:42;101820.66;;;21.50;72.66
80198;BME280;69517;52.030;7.106;2023-11-22T01:15:09;101827.69;;;21.50;72.70
80198;BME280;69517;52.030;7.106;2023-11-22T01:17:35;101826.91;;;21.48;72.74
80198;BME280;69517;52.030;7.106;2023-11-22T01:20:03;101829.53;;;21.48;72.83
80198;BME280;69517;52.030;7.106;2023-11-22T01:22:31;101828.59;;;21.49;72.69
80198;BME280;69517;52.030;7.106;2023-11-22T01:24:58;101843.72;;;21.45;72.66
80198;BME280;69517;52.030;7.106;2023-11-22T01:27:24;101849.84;;;21.45;72.67
80198;BME280;69517;52.030;7.106;2023-11-22T01:29:50;101843.00;;;21.41;72.70
80198;BME280;69517;52.030;7.106;2023-11-22T01:32:19;101843.78;;;21.43;72.65
80198;BME280;69517;52.030;7.106;2023-11-22T01:34:46;101842.09;;;21.42;72.72
80198;BME280;69517;52.030;7.106;2023-11-22T01:37:12;101848.28;;;21.41;72.51
80198;BME280;69517;52.030;7.106;2023-11-22T01:39:40;101853.38;;;21.44;72.31
80198;BME280;69517;52.030;7.106;2023-11-22T01:42:06;101857.94;;;21.41;72.43
80198;BME280;69517;52.030;7.106;2023-11-22T01:44:33;101878.84;;;21.44;72.30
80198;BME280;69517;52.030;7.106;2023-11-22T01:46:59;101866.69;;;21.41;72.33
80198;BME280;69517;52.030;7.106;2023-11-22T01:49:25;101885.09;;;21.41;72.52
80198;BME280;69517;52.030;7.106;2023-11-22T01:51:52;101881.72;;;21.39;72.51
80198;BME280;69517;52.030;7.106;2023-11-22T01:54:19;101885.22;;;21.40;72.38
80198;BME280;69517;52.030;7.106;2023-11-22T01:56:47;101886.19;;;21.37;72.28
80198;BME280;69517;52.030;7.106;2023-11-22T01:59:14;101883.63;;;21.36;72.49
80198;BME280;69517;52.030;7.106;2023-11-22T02:01:40;101886.28;;;21.36;72.38
80198;BME280;69517;52.030;7.106;2023-11-22T02:04:07;101882.72;;;21.37;72.47
80198;BME280;69517;52.030;7.106;2023-11-22T02:06:34;101881.94;;;21.35;72.44
80198;BME280;69517;52.030;7.106;2023-11-22T02:09:02;101885.53;;;21.34;72.37
80198;BME280;69517;52.030;7.106;2023-11-22T02:11:28;101877.69;;;21.32;72.53
80198;BME280;69517;52.030;7.106;2023-11-22T02:13:55;101870.66;;;21.33;72.42
80198;BME280;69517;52.030;7.106;2023-11-22T02:16:22;101867.25;;;21.31;72.39
80198;BME280;69517;52.030;7.106;2023-11-22T02:18:48;101875.84;;;21.34;72.32
80198;BME280;69517;52.030;7.106;2023-11-22T02:21:16;101876.00;;;21.31;72.41
80198;BME280;69517;52.030;7.106;2023-11-22T02:23:43;101885.66;;;21.31;72.32
80198;BME280;69517;52.030;7.106;2023-11-22T02:26:09;101876.06;;;21.30;72.21
80198;BME280;69517;52.030;7.106;2023-11-22T02:28:36;101874.22;;;21.32;72.28
80198;BME280;69517;52.030;7.106;2023-11-22T02:31:03;101867.25;;;21.31;72.38
80198;BME280;69517;52.030;7.106;2023-11-22T02:33:29;101875.22;;;21.29;72.30
80198;BME280;69517;52.030;7.106;2023-11-22T02:35:55;101875.22;;;21.29;72.23
80198;BME280;69517;52.030;7.106;2023-11-22T02:38:21;101871.81;;;21.27;72.33
80198;BME280;69517;52.030;7.106;2023-11-22T02:40:49;101880.63;;;21.26;72.52
80198;BME280;69517;52.030;7.106;2023-11-22T02:43:16;101875.38;;;21.26;72.34
80198;BME280;69517;52.030;7.106;2023-11-22T02:45:42;101891.16;;;21.26;72.34
80198;BME280;69517;52.030;7.106;2023-11-22T02:48:09;101892.16;;;21.24;72.44
80198;BME280;69517;52.030;7.106;2023-11-22T02:50:35;101897.41;;;21.24;72.21
80198;BME280;69517;52.030;7.106;2023-11-22T02:53:02;101900.16;;;21.22;72.50
80198;BME280;69517;52.030;7.106;2023-11-22T02:55:28;101901.81;;;21.23;72.35
80198;BME280;69517;52.030;7.106;2023-11-22T02:57:56;101904.56;;;21.22;72.50
80198;BME280;69517;52.030;7.106;2023-11-22T03:00:22;101903.69;;;21.21;72.38
80198;BME280;69517;52.030;7.106;2023-11-22T03:02:50;101914.28;;;21.20;72.52
80198;BME280;69517;52.030;7.106;2023-11-22T03:05:19;101909.94;;;21.19;72.36
80198;BME280;69517;52.030;7.106;2023-11-22T03:07:45;101900.34;;;21.18;72.45
80198;BME280;69517;52.030;7.106;2023-11-22T03:10:11;101900.44;;;21.16;72.50
80198;BME280;69517;52.030;7.106;2023-11-22T03:12:37;101904.75;;;21.17;72.40
80198;BME280;69517;52.030;7.106;2023-11-22T03:15:06;101908.25;;;21.18;72.32
80198;BME280;69517;52.030;7.106;2023-11-22T03:17:32;101911.66;;;21.20;72.21
80198;BME280;69517;52.030;7.106;2023-11-22T03:19:59;101912.56;;;21.19;72.20
80198;BME280;69517;52.030;7.106;2023-11-22T03:22:25;101910.03;;;21.17;72.33
80198;BME280;69517;52.030;7.106;2023-11-22T03:24:52;101909.31;;;21.14;72.41
80198;BME280;69517;52.030;7.106;2023-11-22T03:27:19;101911.72;;;21.18;72.14
80198;BME280;69517;52.030;7.106;2023-11-22T03:29:46;101912.66;;;21.17;72.29
80198;BME280;69517;52.030;7.106;2023-11-22T03:32:13;101904.00;;;21.15;72.08
80198;BME280;69517;52.030;7.106;2023-11-22T03:34:40;101906.63;;;21.15;72.20
80198;BME280;69517;52.030;7.106;2023-11-22T03:37:06;101915.41;;;21.14;72.22
80198;BME280;69517;52.030;7.106;2023-11-22T03:39:32;101923.03;;;21.20;72.13
80198;BME280;69517;52.030;7.106;2023-11-22T03:41:59;101919.47;;;21.21;71.90
80198;BME280;69517;52.030;7.106;2023-11-22T03:44:25;101938.66;;;21.23;71.90
80198;BME280;69517;52.030;7.106;2023-11-22T03:46:51;101934.78;;;21.30;71.61
80198;BME280;69517;52.030;7.106;2023-11-22T03:49:19;101935.50;;;21.34;71.37
80198;BME280;69517;52.030;7.106;2023-11-22T03:51:47;101935.34;;;21.37;71.37
80198;BME280;69517;52.030;7.106;2023-11-22T03:54:14;101946.56;;;21.40;71.21
80198;BME280;69517;52.030;7.106;2023-11-22T03:56:40;101952.66;;;21.41;71.27
80198;BME280;69517;52.030;7.106;2023-11-22T03:59:06;101955.22;;;21.42;71.04
80198;BME280;69517;52.030;7.106;2023-11-22T04:01:32;101960.25;;;21.47;71.13
80198;BME280;69517;52.030;7.106;2023-11-22T04:03:59;101969.00;;;21.48;71.13
80198;BME280;69517;52.030;7.106;2023-11-22T04:06:26;101975.97;;;21.49;70.96
80198;BME280;69517;52.030;7.106;2023-11-22T04:08:52;101981.16;;;21.50;71.05
80198;BME280;69517;52.030;7.106;2023-11-22T04:11:19;101976.56;;;21.54;70.93
80198;BME280;69517;52.030;7.106;2023-11-22T04:13:46;101974.78;;;21.54;70.98
80198;BME280;69517;52.030;7.106;2023-11-22T04:16:12;101971.25;;;21.55;71.04
80198;BME280;69517;52.030;7.106;2023-11-22T04:18:39;101969.47;;;21.56;71.08
80198;BME280;69517;52.030;7.106;2023-11-22T04:21:06;101964.97;;;21.58;70.92
80198;BME280;69517;52.030;7.106;2023-11-22T04:23:33;101964.06;;;21.59;70.81
80198;BME280;69517;52.030;7.106;2023-11-22T04:26:00;101961.25;;;21.62;70.96
80198;BME280;69517;52.030;7.106;2023-11-22T04:28:27;101961.25;;;21.62;71.07
80198;BME280;69517;52.030;7.106;2023-11-22T04:30:54;101963.81;;;21.63;70.91
80198;BME280;69517;52.030;7.106;2023-11-22T04:33:20;101962.03;;;21.64;70.97
80198;BME280;69517;52.030;7.106;2023-11-22T04:35:47;101968.16;;;21.64;70.95
80198;BME280;69517;52.030;7.106;2023-11-22T04:38:13;101957.53;;;21.66;70.89
80198;BME280;69517;52.030;7.106;2023-11-22T04:40:41;101969.75;;;21.67;70.91
80198;BME280;69517;52.030;7.106;2023-11-22T04:43:07;101978.44;;;21.69;70.87
80198;BME280;69517;52.030;7.106;2023-11-22T04:45:34;101975.81;;;21.69;70.92
80198;BME280;69517;52.030;7.106;2023-11-22T04:48:00;101973.19;;;21.69;70.97
80198;BME280;69517;52.030;7.106;2023-11-22T04:50:26;101981.06;;;21.69;71.01
80198;BME280;69517;52.030;7.106;2023-11-22T04:52:53;101990.69;;;21.70;70.80
80198;BME280;69517;52.030;7.106;2023-11-22T04:55:19;101989.75;;;21.71;70.95
80198;BME280;69517;52.030;7.106;2023-11-22T04:57:49;101999.34;;;21.72;70.85
80198;BME280;69517;52.030;7.106;2023-11-22T05:00:15;101998.41;;;21.73;70.76
80198;BME280;69517;52.030;7.106;2023-11-22T05:02:42;102004.59;;;21.72;70.86
80198;BME280;69517;52.030;7.106;2023-11-22T05:05:08;102003.53;;;21.76;70.86
80198;BME280;69517;52.030;7.106;2023-11-22T05:07:36;102000.13;;;21.74;70.70
80198;BME280;69517;52.030;7.106;2023-11-22T05:10:02;101999.13;;;21.76;70.70
80198;BME280;69517;52.030;7.106;2023-11-22T05:12:29;102007.03;;;21.76;70.64
80198;BME280;69517;52.030;7.106;2023-11-22T05:14:56;102007.03;;;21.76;70.69
80198;BME280;69517;52.030;7.106;2023-11-22T05:17:23;102008.78;;;21.76;70.87
80198;BME280;69517;52.030;7.106;2023-11-22T05:19:49;102007.03;;;21.76;70.86
80198;BME280;69517;52.030;7.106;2023-11-22T05:22:16;102002.59;;;21.77;70.69
80198;BME280;69517;52.030;7.106;2023-11-22T05:24:42;102002.59;;;21.77;70.77
80198;BME280;69517;52.030;7.106;2023-11-22T05:27:09;102012.19;;;21.78;70.80
80198;BME280;69517;52.030;7.106;2023-11-22T05:29:35;102013.03;;;21.78;70.86
80198;BME280;69517;52.030;7.106;2023-11-22T05:32:03;102012.13;;;21.79;70.78
80198;BME280;69517;52.030;7.106;2023-11-22T05:34:29;102009.53;;;21.78;70.63
80198;BME280;69517;52.030;7.106;2023-11-22T05:36:56;102014.75;;;21.79;70.90
80198;BME280;69517;52.030;7.106;2023-11-22T05:39:22;102017.38;;;21.79;70.69
80198;BME280;69517;52.030;7.106;2023-11-22T05:41:49;102019.94;;;21.81;70.77
80198;BME280;69517;52.030;7.106;2023-11-22T05:44:16;102013.81;;;21.80;70.54
80198;BME280;69517;52.030;7.106;2023-11-22T05:46:42;102007.69;;;21.80;70.64
80198;BME280;69517;52.030;7.106;2023-11-22T05:49:10;102006.78;;;21.81;70.65
80198;BME280;69517;52.030;7.106;2023-11-22T05:51:36;102005.84;;;21.82;70.82
80198;BME280;69517;52.030;7.106;2023-11-22T05:54:03;102005.84;;;21.82;70.69
80198;BME280;69517;52.030;7.106;2023-11-22T05:56:29;102000.59;;;21.82;70.66
80198;BME280;69517;52.030;7.106;2023-11-22T05:58:56;102000.59;;;21.82;70.54
80198;BME280;69517;52.030;7.106;2023-11-22T06:01:24;102000.59;;;21.82;70.71
80198;BME280;69517;52.030;7.106;2023-11-22T06:03:51;102011.00;;;21.83;70.69
80198;BME280;69517;52.030;7.106;2023-11-22T06:06:19;102021.53;;;21.83;70.58
80198;BME280;69517;52.030;7.106;2023-11-22T06:08:46;102023.34;;;21.83;70.66
80198;BME280;69517;52.030;7.106;2023-11-22T06:11:12;102018.09;;;21.83;70.51
80198;BME280;69517;52.030;7.106;2023-11-22T06:13:40;102016.13;;;21.86;70.48
80198;BME280;69517;52.030;7.106;2023-11-22T06:16:07;102029.38;;;21.85;70.38
80198;BME280;69517;52.030;7.106;2023-11-22T06:18:34;102031.16;;;21.84;70.54
80198;BME280;69517;52.030;7.106;2023-11-22T06:21:05;102032.88;;;21.85;70.57
80198;BME280;69517;52.030;7.106;2023-11-22T06:23:32;102039.91;;;21.85;70.44
80198;BME280;69517;52.030;7.106;2023-11-22T06:25:59;102046.94;;;21.84;70.68
80198;BME280;69517;52.030;7.106;2023-11-22T06:28:25;102040.75;;;21.85;70.59
80198;BME280;69517;52.030;7.106;2023-11-22T06:30:51;102046.88;;;21.86;70.40
80198;BME280;69517;52.030;7.106;2023-11-22T06:33:18;102045.03;;;21.88;70.36
80198;BME280;69517;52.030;7.106;2023-11-22T06:35:45;102038.91;;;21.88;70.31
80198;BME280;69517;52.030;7.106;2023-11-22T06:38:11;102027.47;;;21.89;70.27
80198;BME280;69517;52.030;7.106;2023-11-22T06:40:39;102036.69;;;21.97;70.10
80198;BME280;69517;52.030;7.106;2023-11-22T06:43:05;102037.94;;;22.07;69.56
80198;BME280;69517;52.030;7.106;2023-11-22T06:45:31;102034.72;;;22.18;69.32
80198;BME280;69517;52.030;7.106;2023-11-22T06:47:58;102044.09;;;22.23;69.12
80198;BME280;69517;52.030;7.106;2023-11-22T06:50:24;102043.78;;;22.30;68.93
80198;BME280;69517;52.030;7.106;2023-11-22T06:52:50;102051.44;;;22.34;68.65
80198;BME280;69517;52.030;7.106;2023-11-22T06:55:17;102061.72;;;22.39;68.40
80198;BME280;69517;52.030;7.106;2023-11-22T06:57:45;102058.00;;;22.43;68.11
80198;BME280;69517;52.030;7.106;2023-11-22T07:00:12;102066.50;;;22.48;68.13
80198;BME280;69517;52.030;7.106;2023-11-22T07:02:38;102086.50;;;22.52;68.11
80198;BME280;69517;52.030;7.106;2023-11-22T07:05:05;102076.28;;;22.46;68.31
80198;BME280;69517;52.030;7.106;2023-11-22T07:07:33;102079.03;;;22.44;68.39
80198;BME280;69517;52.030;7.106;2023-11-22T07:09:59;102082.66;;;22.42;68.54
80198;BME280;69517;52.030;7.106;2023-11-22T07:12:25;102093.78;;;22.47;68.56
80198;BME280;69517;52.030;7.106;2023-11-22T07:14:53;102095.31;;;22.51;68.55
80198;BME280;69517;52.030;7.106;2023-11-22T07:17:20;102090.91;;;22.51;68.63
80198;BME280;69517;52.030;7.106;2023-11-22T07:19:47;102104.09;;;22.51;68.52
80198;BME280;69517;52.030;7.106;2023-11-22T07:22:14;102095.50;;;22.48;68.68
80198;BME280;69517;52.030;7.106;2023-11-22T07:24:42;102094.56;;;22.49;68.64
80198;BME280;69517;52.030;7.106;2023-11-22T07:27:08;102090.16;;;22.49;68.53
80198;BME280;69517;52.030;7.106;2023-11-22T07:29:37;102090.25;;;22.48;68.70
80198;BME280;69517;52.030;7.106;2023-11-22T07:32:05;102085.03;;;22.46;68.66
80198;BME280;69517;52.030;7.106;2023-11-22T07:34:32;102086.06;;;22.44;68.77
80198;BME280;69517;52.030;7.106;2023-11-22T07:36:58;102087.31;;;22.37;68.97
80198;BME280;69517;52.030;7.106;2023-11-22T07:39:24;102084.84;;;21.82;64.28
80198;BME280;69517;52.030;7.106;2023-11-22T07:41:52;102087.97;;;21.35;61.74
80198;BME280;69517;52.030;7.106;2023-11-22T07:44:19;102073.56;;;21.06;60.33
80198;BME280;69517;52.030;7.106;2023-11-22T07:46:46;102060.28;;;20.91;58.95
80198;BME280;69517;52.030;7.106;2023-11-22T07:49:14;102046.00;;;20.96;60.39
80198;BME280;69517;52.030;7.106;2023-11-22T07:51:40;102047.47;;;21.39;61.90
80198;BME280;69517;52.030;7.106;2023-11-22T07:54:07;102048.72;;;21.67;61.94
80198;BME280;69517;52.030;7.106;2023-11-22T07:56:33;102046.09;;;21.84;61.80
80198;BME280;69517;52.030;7.106;2023-11-22T07:59:00;102047.41;;;21.93;61.75
80198;BME280;69517;52.030;7.106;2023-11-22T08:01:26;102049.13;;;21.94;62.18
80198;BME280;69517;52.030;7.106;2023-11-22T08:03:56;102050.47;;;22.02;62.25
80198;BME280;69517;52.030;7.106;2023-11-22T08:06:24;102067.66;;;22.09;62.62
80198;BME280;69517;52.030;7.106;2023-11-22T08:08:52;102068.25;;;22.14;62.60
80198;BME280;69517;52.030;7.106;2023-11-22T08:11:18;102077.72;;;22.18;62.47
80198;BME280;69517;52.030;7.106;2023-11-22T08:13:45;102075.84;;;22.20;62.79
80198;BME280;69517;52.030;7.106;2023-11-22T08:16:13;102074.00;;;22.22;62.99
80198;BME280;69517;52.030;7.106;2023-11-22T08:18:39;102078.34;;;22.23;63.12
80198;BME280;69517;52.030;7.106;2023-11-22T08:21:07;102104.06;;;22.18;63.45
80198;BME280;69517;52.030;7.106;2023-11-22T08:23:35;102100.34;;;22.22;63.45
80198;BME280;69517;52.030;7.106;2023-11-22T08:26:01;102117.06;;;22.21;63.35
80198;BME280;69517;52.030;7.106;2023-11-22T08:28:28;102130.25;;;22.21;63.26
80198;BME280;69517;52.030;7.106;2023-11-22T08:30:55;102143.53;;;22.20;63.45
80198;BME280;69517;52.030;7.106;2023-11-22T08:33:21;102157.50;;;22.20;63.55
80198;BME280;69517;52.030;7.106;2023-11-22T08:35:48;102162.03;;;22.18;63.42
80198;BME280;69517;52.030;7.106;2023-11-22T08:38:17;102168.22;;;22.17;63.74
80198;BME280;69517;52.030;7.106;2023-11-22T08:40:45;102171.78;;;22.16;63.89
80198;BME280;69517;52.030;7.106;2023-11-22T08:43:12;102163.75;;;22.19;64.15
80198;BME280;69517;52.030;7.106;2023-11-22T08:45:38;102140.94;;;22.18;64.08
80198;BME280;69517;52.030;7.106;2023-11-22T08:48:04;102139.19;;;22.19;64.09
80198;BME280;69517;52.030;7.106;2023-11-22T08:50:31;102126.00;;;22.19;64.33
80198;BME280;69517;52.030;7.106;2023-11-22T08:52:57;102138.25;;;22.20;64.64
80198;BME280;69517;52.030;7.106;2023-11-22T08:55:23;102131.28;;;22.19;64.75
80198;BME280;69517;52.030;7.106;2023-11-22T08:57:51;102126.94;;;22.18;64.85
80198;BME280;69517;52.030;7.106;2023-11-22T09:00:17;102128.72;;;22.17;64.78
80198;BME280;69517;52.030;7.106;2023-11-22T09:02:48;102124.28;;;22.18;64.95
80198;BME280;69517;52.030;7.106;2023-11-22T09:05:14;102125.22;;;22.17;65.23
80198;BME280;69517;52.030;7.106;2023-11-22T09:07:42;102134.03;;;22.16;65.42
80198;BME280;69517;52.030;7.106;2023-11-22T09:10:09;102144.50;;;22.17;65.37
80198;BME280;69517;52.030;7.106;2023-11-22T09:12:38;102133.97;;;22.17;65.45
80198;BME280;69517;52.030;7.106;2023-11-22T09:15:07;102125.28;;;22.15;65.72
80198;BME280;69517;52.030;7.106;2023-11-22T09:17:35;102119.94;;;22.17;65.61
80198;BME280;69517;52.030;7.106;2023-11-22T09:20:02;102118.16;;;22.17;65.45
80198;BME280;69517;52.030;7.106;2023-11-22T09:22:29;102120.88;;;22.16;65.83
80198;BME280;69517;52.030;7.106;2023-11-22T09:24:55;102122.66;;;22.15;66.03
80198;BME280;69517;52.030;7.106;2023-11-22T09:27:22;102121.91;;;22.13;65.86
80198;BME280;69517;52.030;7.106;2023-11-22T09:29:48;102121.81;;;22.15;66.01
80198;BME280;69517;52.030;7.106;2023-11-22T09:32:16;102135.81;;;22.15;66.06
80198;BME280;69517;52.030;7.106;2023-11-22T09:34:42;102142.03;;;22.14;66.21
80198;BME280;69517;52.030;7.106;2023-11-22T09:37:09;102146.38;;;22.15;66.44
80198;BME280;69517;52.030;7.106;2023-11-22T09:39:35;102142.03;;;22.14;66.69
80198;BME280;69517;52.030;7.106;2023-11-22T09:42:01;102142.97;;;22.13;66.53
80198;BME280;69517;52.030;7.106;2023-11-22T09:44:29;102154.38;;;22.14;66.62
80198;BME280;69517;52.030;7.106;2023-11-22T09:46:56;102152.56;;;22.14;66.60
80198;BME280;69517;52.030;7.106;2023-11-22T09:49:24;102162.34;;;22.12;66.69
80198;BME280;69517;52.030;7.106;2023-11-22T09:51:51;102164.19;;;22.10;67.03
80198;BME280;69517;52.030;7.106;2023-11-22T09:54:20;102158.13;;;22.08;66.93
80198;BME280;69517;52.030;7.106;2023-11-22T09:56:54;102150.31;;;22.07;67.25
80198;BME280;69517;52.030;7.106;2023-11-22T09:59:21;102145.97;;;22.06;67.08
80198;BME280;69517;52.030;7.106;2023-11-22T10:01:49;102148.69;;;22.04;67.32
80198;BME280;69517;52.030;7.106;2023-11-22T10:04:17;102144.28;;;22.05;67.29
80198;BME280;69517;52.030;7.106;2023-11-22T10:06:45;102147.84;;;22.04;67.36
80198;BME280;69517;52.030;7.106;2023-11-22T10:09:11;102148.75;;;22.03;67.19
80198;BME280;69517;52.030;7.106;2023-11-22T10:11:39;102149.16;;;21.95;66.84
80198;BME280;69517;52.030;7.106;2023-11-22T10:14:08;102151.09;;;21.90;66.03
80198;BME280;69517;52.030;7.106;2023-11-22T10:16:34;102147.56;;;21.91;66.30
80198;BME280;69517;52.030;7.106;2023-11-22T10:19:01;102160.66;;;21.93;66.06
80198;BME280;69517;52.030;7.106;2023-11-22T10:21:28;102166.63;;;21.96;65.85
80198;BME280;69517;52.030;7.106;2023-11-22T10:23:57;102152.53;;;21.97;65.61
80198;BME280;69517;52.030;7.106;2023-11-22T10:26:23;102147.28;;;21.97;65.86
80198;BME280;69517;52.030;7.106;2023-11-22T10:28:50;102142.09;;;21.96;65.72
80198;BME280;69517;52.030;7.106;2023-11-22T10:31:17;102145.50;;;21.98;65.49
80198;BME280;69517;52.030;7.106;2023-11-22T10:33:44;102130.56;;;21.98;65.77
80198;BME280;69517;52.030;7.106;2023-11-22T10:36:10;102134.03;;;21.99;65.52
80198;BME280;69517;52.030;7.106;2023-11-22T10:38:37;102138.31;;;22.01;65.66
80198;BME280;69517;52.030;7.106;2023-11-22T10:41:05;102121.66;;;22.01;65.63
80198;BME280;69517;52.030;7.106;2023-11-22T10:43:32;102108.50;;;22.01;65.64
80198;BME280;69517;52.030;7.106;2023-11-22T10:46:00;102122.53;;;22.01;65.67
80198;BME280;69517;52.030;7.106;2023-11-22T10:48:26;102110.88;;;22.05;65.37
80198;BME280;69517;52.030;7.106;2023-11-22T10:50:54;102118.78;;;22.05;65.56
80198;BME280;69517;52.030;7.106;2023-11-22T10:53:22;102108.25;;;22.05;65.56
80198;BME280;69517;52.030;7.106;2023-11-22T10:55:53;102104.75;;;22.05;65.60
80198;BME280;69517;52.030;7.106;2023-11-22T10:58:24;102106.47;;;22.06;65.71
80198;BME280;69517;52.030;7.106;2023-11-22T11:00:50;102107.41;;;22.05;65.83
80198;BME280;69517;52.030;7.106;2023-11-22T11:03:17;102105.63;;;22.05;65.97
80198;BME280;69517;52.030;7.106;2023-11-22T11:05:46;102107.16;;;22.09;65.92
80198;BME280;69517;52.030;7.106;2023-11-22T11:08:15;102103.78;;;22.07;65.96
80198;BME280;69517;52.030;7.106;2023-11-22T11:10:45;102106.41;;;22.07;66.24
80198;BME280;69517;52.030;7.106;2023-11-22T11:13:12;102098.50;;;22.07;66.10
80198;BME280;69517;52.030;7.106;2023-11-22T11:15:40;102093.06;;;22.10;66.41
80198;BME280;69517;52.030;7.106;2023-11-22T11:18:08;102095.69;;;22.10;66.31
80198;BME280;69517;52.030;7.106;2023-11-22T11:20:44;102100.19;;;22.08;66.57
80198;BME280;69517;52.030;7.106;2023-11-22T11:23:13;102105.63;;;22.05;66.70
80198;BME280;69517;52.030;7.106;2023-11-22T11:25:39;102110.09;;;22.03;66.96
80198;BME280;69517;52.030;7.106;2023-11-22T11:28:06;102100.50;;;22.02;66.88
80198;BME280;69517;52.030;7.106;2023-11-22T11:30:47;102092.59;;;22.02;66.68
80198;BME280;69517;52.030;7.106;2023-11-22T11:33:15;102089.22;;;22.00;66.74
80198;BME280;69517;52.030;7.106;2023-11-22T11:35:43;102067.22;;;22.01;66.90
80198;BME280;69517;52.030;7.106;2023-11-22T11:38:11;102054.03;;;22.01;66.72
80198;BME280;69517;52.030;7.106;2023-11-22T11:40:39;102038.25;;;22.01;66.61
80198;BME280;69517;52.030;7.106;2023-11-22T11:43:05;102028.63;;;22.00;66.79
80198;BME280;69517;52.030;7.106;2023-11-22T11:45:34;102019.94;;;21.98;66.70
80198;BME280;69517;52.030;7.106;2023-11-22T11:48:02;102012.06;;;21.98;66.92
80198;BME280;69517;52.030;7.106;2023-11-22T11:50:29;101995.41;;;21.98;66.93
80198;BME280;69517;52.030;7.106;2023-11-22T11:52:56;101983.16;;;21.97;66.85
80198;BME280;69517;52.030;7.106;2023-11-22T11:55:22;101969.13;;;21.96;66.96
80198;BME280;69517;52.030;7.106;2023-11-22T11:57:48;101970.84;;;21.97;66.90
80198;BME280;69517;52.030;7.106;2023-11-22T12:00:15;101960.31;;;21.97;66.90
80198;BME280;69517;52.030;7.106;2023-11-22T12:02:41;101961.16;;;21.98;67.21
80198;BME280;69517;52.030;7.106;2023-11-22T12:05:09;101959.38;;;21.98;67.04
80198;BME280;69517;52.030;7.106;2023-11-22T12:07:35;101963.72;;;21.99;66.93
80198;BME280;69517;52.030;7.106;2023-11-22T12:10:02;101966.38;;;21.99;67.10
80198;BME280;69517;52.030;7.106;2023-11-22T12:12:31;101961.94;;;22.00;67.00
80198;BME280;69517;52.030;7.106;2023-11-22T12:14:57;101957.53;;;22.00;67.18
80198;BME280;69517;52.030;7.106;2023-11-22T12:17:24;101943.50;;;22.00;67.03
80198;BME280;69517;52.030;7.106;2023-11-22T12:19:51;101940.03;;;21.99;67.21
80198;BME280;69517;52.030;7.106;2023-11-22T12:22:19;101929.50;;;21.99;67.12
80198;BME280;69517;52.030;7.106;2023-11-22T12:24:46;101933.06;;;21.98;67.22
80198;BME280;69517;52.030;7.106;2023-11-22T12:27:12;101943.59;;;21.98;67.07
80198;BME280;69517;52.030;7.106;2023-11-22T12:29:39;101948.84;;;21.98;67.26
80198;BME280;69517;52.030;7.106;2023-11-22T12:32:06;101942.72;;;21.98;67.44
80198;BME280;69517;52.030;7.106;2023-11-22T12:34:33;101942.81;;;21.96;67.41
80198;BME280;69517;52.030;7.106;2023-11-22T12:36:59;101951.47;;;21.98;67.46
80198;BME280;69517;52.030;7.106;2023-11-22T12:39:28;101965.50;;;21.99;67.56
80198;BME280;69517;52.030;7.106;2023-11-22T12:41:54;101967.28;;;21.98;67.39
80198;BME280;69517;52.030;7.106;2023-11-22T12:44:22;101953.19;;;21.99;67.46
80198;BME280;69517;52.030;7.106;2023-11-22T12:46:49;101944.44;;;21.99;67.42
80198;BME280;69517;52.030;7.106;2023-11-22T12:49:22;101929.56;;;21.98;67.43